Time;durP1;ratioP1;P1;durP2;ratioP2;P2;SDS_P1;SDS_P2;PMS_P1;PMS_P2;Temp;Humidity;BMP_temperature;BMP_pressure;BME280_temperature;BME280_humidity;BME280_pressure;Samples;Min_cycle;Max_cycle;Signal;HPM_P1;HPM_P2
2021/11/13 00:00:55;;;;;;;52.72;33.50;;;;;;;4.31;95.14;98675.28;4980154;28;103229;-66
2021/11/13 00:03:24;;;;;;;32.65;29.17;;;;;;;4.66;93.83;98686.63;4981311;28;102615;-66
2021/11/13 00:05:52;;;;;;;31.08;27.92;;;;;;;5.02;92.31;98679.63;4978107;28;102893;-66
2021/11/13 00:08:20;;;;;;;86.78;39.97;;;;;;;4.14;93.00;98677.81;4979964;28;104123;-66
2021/11/13 00:10:51;;;;;;;36.25;31.27;;;;;;;4.47;95.29;98670.13;4980114;28;103204;-63
2021/11/13 00:13:21;;;;;;;29.77;26.97;;;;;;;4.88;93.52;98674.22;4981773;28;102647;-66
2021/11/13 00:15:50;;;;;;;30.27;27.27;;;;;;;5.05;92.12;98671.56;4980543;28;104303;-66
2021/11/13 00:18:21;;;;;;;72.27;33.27;;;;;;;4.89;90.93;98678.50;4977712;28;103990;-66
2021/11/13 00:20:51;;;;;;;57.00;31.90;;;;;;;4.88;91.39;98679.47;4978800;28;103198;-66
2021/11/13 00:23:19;;;;;;;28.52;25.83;;;;;;;5.30;91.69;98679.06;4980690;28;103294;-66
2021/11/13 00:25:50;;;;;;;40.70;30.30;;;;;;;4.99;90.99;98689.38;4982277;28;102852;-66
2021/11/13 00:28:20;;;;;;;31.77;28.60;;;;;;;4.98;92.34;98691.16;4980357;28;103274;-66
2021/11/13 00:30:48;;;;;;;43.10;25.83;;;;;;;5.27;89.62;98689.69;4981378;28;103235;-66
2021/11/13 00:33:16;;;;;;;113.93;29.70;;;;;;;5.33;89.11;98689.38;4983504;28;103058;-66
2021/11/13 00:35:44;;;;;;;29.20;26.38;;;;;;;5.43;89.33;98684.50;4980687;28;103952;-66
2021/11/13 00:38:16;;;;;;;29.05;26.15;;;;;;;5.48;89.49;98698.19;4981182;28;104122;-66
2021/11/13 00:40:44;;;;;;;32.47;29.17;;;;;;;5.52;88.87;98694.50;4981337;28;103309;-66
2021/11/13 00:43:13;;;;;;;27.65;24.70;;;;;;;5.50;88.88;98696.38;4984185;28;102615;-65
2021/11/13 00:45:41;;;;;;;27.17;24.55;;;;;;;5.53;88.78;98701.47;4982165;28;102724;-66
2021/11/13 00:48:09;;;;;;;24.65;22.27;;;;;;;5.68;88.39;98684.91;4981293;28;103293;-66
2021/11/13 00:50:42;;;;;;;29.67;26.67;;;;;;;5.74;87.78;98684.59;4981427;28;103334;-66
2021/11/13 00:53:10;;;;;;;29.77;25.80;;;;;;;5.68;87.75;98691.00;4983900;28;102645;-66
2021/11/13 00:55:40;;;;;;;25.98;23.40;;;;;;;5.76;87.83;98677.47;4984175;28;104090;-66
2021/11/13 00:58:07;;;;;;;27.75;25.00;;;;;;;5.79;87.84;98666.84;4983193;28;103436;-66
2021/11/13 01:00:36;;;;;;;30.27;27.08;;;;;;;5.78;86.86;98665.16;4981653;28;103278;-66
2021/11/13 01:03:04;;;;;;;40.63;29.53;;;;;;;5.38;88.96;98668.16;4983548;28;103669;-66
2021/11/13 01:05:32;;;;;;;57.73;28.87;;;;;;;5.36;88.71;98673.47;4986053;28;102974;-66
2021/11/13 01:08:00;;;;;;;27.77;25.17;;;;;;;5.53;88.51;98675.25;4981347;28;103209;-66
2021/11/13 01:10:31;;;;;;;28.48;25.83;;;;;;;5.30;89.86;98678.22;4983973;28;104377;-66
2021/11/13 01:13:01;;;;;;;125.68;36.60;;;;;;;4.74;90.69;98684.53;4978764;28;103044;-66
2021/11/13 01:15:29;;;;;;;150.67;36.60;;;;;;;4.62;92.96;98695.56;4985785;28;103700;-66
2021/11/13 01:17:57;;;;;;;130.27;32.92;;;;;;;4.81;93.54;98701.59;4980503;28;103237;-66
2021/11/13 01:20:26;;;;;;;120.25;34.53;;;;;;;4.98;92.11;98708.63;4982397;28;103183;-66
2021/11/13 01:22:54;;;;;;;92.78;31.42;;;;;;;5.10;91.67;98708.88;4982958;28;102807;-66
2021/11/13 01:25:22;;;;;;;314.98;49.40;;;;;;;4.21;93.18;98717.63;4980764;28;102979;-66
2021/11/13 01:27:50;;;;;;;49.10;29.23;;;;;;;4.88;93.95;98717.88;4980768;28;103219;-66
2021/11/13 01:30:21;;;;;;;232.17;37.60;;;;;;;4.71;92.22;98716.06;4982774;28;104000;-63
2021/11/13 01:32:50;;;;;;;24.20;21.95;;;;;;;5.13;91.88;98721.81;4983065;28;102701;-66
2021/11/13 01:35:21;;;;;;;189.63;32.85;;;;;;;4.93;90.44;98727.19;4980354;28;102796;-66
2021/11/13 01:37:50;;;;;;;159.90;32.83;;;;;;;4.44;93.05;98723.47;4982394;28;104094;-66
2021/11/13 01:40:20;;;;;;;223.32;35.85;;;;;;;4.18;93.04;98730.84;4980232;28;103168;-66
2021/11/13 01:42:49;;;;;;;151.75;38.08;;;;;;;3.78;94.41;98737.88;4983074;28;102607;-66
2021/11/13 01:45:18;;;;;;;33.85;25.90;;;;;;;4.27;95.51;98735.63;4982230;28;104095;-66
2021/11/13 01:47:49;;;;;;;138.60;38.75;;;;;;;4.04;92.82;98734.91;4977979;28;103257;-66
2021/11/13 01:50:20;;;;;;;48.30;29.50;;;;;;;3.82;97.18;98728.94;4981570;28;103353;-66
2021/11/13 01:52:49;;;;;;;77.82;32.78;;;;;;;3.71;98.71;98728.59;4982898;28;102693;-63
2021/11/13 01:55:22;;;;;;;26.13;23.73;;;;;;;4.36;96.96;98724.75;4982846;28;102842;-62
2021/11/13 01:57:51;;;;;;;55.05;26.60;;;;;;;4.54;94.06;98716.03;4983023;28;104703;-65
2021/11/13 02:00:25;;;;;;;35.70;24.83;;;;;;;4.68;92.23;98708.38;4978780;28;102993;-66
2021/11/13 02:02:54;;;;;;;22.97;20.67;;;;;;;4.90;92.37;98705.53;4976741;28;102928;-66
2021/11/13 02:05:22;;;;;;;60.40;25.85;;;;;;;4.25;92.73;98701.72;4982361;28;102840;-66
2021/11/13 02:07:50;;;;;;;53.40;25.90;;;;;;;4.25;93.08;98700.84;4978029;28;103376;-66
2021/11/13 02:10:21;;;;;;;31.73;22.15;;;;;;;4.72;92.39;98695.97;4978594;28;103396;-66
2021/11/13 02:12:49;;;;;;;20.92;19.02;;;;;;;4.77;92.40;98701.84;4980341;28;102656;-66
2021/11/13 02:15:17;;;;;;;70.95;26.17;;;;;;;4.37;91.21;98695.06;4983092;28;102677;-66
2021/11/13 02:17:45;;;;;;;18.67;17.02;;;;;;;4.69;92.22;98700.44;4981464;28;103275;-66
2021/11/13 02:20:34;;;;;;;34.73;20.90;;;;;;;4.75;90.91;98701.91;4979314;28;103158;-62
2021/11/13 02:23:07;;;;;;;20.13;18.07;;;;;;;4.99;89.93;98708.56;4979260;28;102652;-62
2021/11/13 02:25:35;;;;;;;19.92;17.85;;;;;;;5.01;88.93;98722.41;4984214;28;102737;-66
2021/11/13 02:28:06;;;;;;;20.88;18.73;;;;;;;5.12;88.78;98717.50;4978811;28;103691;-66
2021/11/13 02:30:34;;;;;;;27.88;21.55;;;;;;;4.64;88.83;98719.88;4980464;28;103333;-66
2021/11/13 02:33:03;;;;;;;31.67;23.38;;;;;;;4.55;89.75;98715.09;4982046;28;102827;-66
2021/11/13 02:35:33;;;;;;;20.02;18.23;;;;;;;4.87;90.29;98727.50;4978333;28;102638;-66
2021/11/13 02:38:11;;;;;;;22.77;20.48;;;;;;;4.84;89.19;98719.78;4981894;28;103321;-66
2021/11/13 02:40:40;;;;;;;18.88;17.13;;;;;;;5.10;89.01;98721.97;4980883;28;103501;-66
2021/11/13 02:43:11;;;;;;;32.55;18.67;;;;;;;5.05;88.65;98720.50;4980205;28;102945;-66
2021/11/13 02:45:41;;;;;;;48.38;21.80;;;;;;;4.86;87.94;98733.63;4980454;28;103054;-66
2021/11/13 02:48:10;;;;;;;21.42;19.33;;;;;;;4.95;89.05;98730.56;4977023;28;104074;-66
2021/11/13 02:50:43;;;;;;;19.67;17.77;;;;;;;5.21;88.63;98722.28;4979987;28;103284;-66
2021/11/13 02:53:14;;;;;;;20.10;18.30;;;;;;;5.05;89.11;98713.47;4980016;28;102907;-66
2021/11/13 02:55:46;;;;;;;17.27;15.77;;;;;;;5.22;88.79;98705.63;4982231;28;102838;-66
2021/11/13 02:58:20;;;;;;;18.02;16.42;;;;;;;5.37;87.72;98705.75;4981777;28;103295;-66
2021/11/13 03:00:50;;;;;;;19.52;17.63;;;;;;;5.36;87.19;98709.34;4979765;28;103272;-66
2021/11/13 03:03:19;;;;;;;22.23;19.40;;;;;;;5.28;87.32;98707.94;4978424;28;102847;-66
2021/11/13 03:05:50;;;;;;;39.80;23.07;;;;;;;4.57;88.63;98708.03;4978735;28;102836;-66
2021/11/13 03:08:22;;;;;;;23.00;20.63;;;;;;;4.77;90.05;98715.78;4979630;28;103619;-66
2021/11/13 03:10:51;;;;;;;20.57;18.70;;;;;;;4.94;89.38;98710.53;4977453;28;103202;-66
2021/11/13 03:13:20;;;;;;;19.58;17.65;;;;;;;5.10;88.47;98724.59;4980580;28;102934;-66
2021/11/13 03:15:49;;;;;;;28.58;20.40;;;;;;;4.66;87.88;98718.03;4978735;28;102947;-66
2021/11/13 03:18:18;;;;;;;28.50;21.33;;;;;;;4.31;89.80;98722.34;4980999;28;103529;-66
2021/11/13 03:20:48;;;;;;;17.67;16.13;;;;;;;4.75;90.12;98722.84;4978994;28;103259;-66
2021/11/13 03:23:17;;;;;;;26.33;19.90;;;;;;;4.52;89.04;98712.66;4978268;28;102722;-66
2021/11/13 03:25:53;;;;;;;20.50;18.00;;;;;;;4.68;89.59;98706.59;4995433;28;102765;-66
2021/11/13 03:28:24;;;;;;;19.43;17.73;;;;;;;4.81;89.28;98714.69;4980397;28;103247;-66
2021/11/13 03:30:54;;;;;;;15.73;14.32;;;;;;;5.10;88.38;98710.66;4977863;28;103220;-66
2021/11/13 03:33:24;;;;;;;18.13;16.55;;;;;;;5.18;87.76;98701.47;4978654;28;102641;-66
2021/11/13 03:35:53;;;;;;;22.40;20.10;;;;;;;4.98;87.56;98699.00;4980831;28;102656;-66
2021/11/13 03:38:21;;;;;;;39.35;24.08;;;;;;;4.36;90.30;98703.81;4980253;28;104039;-66
2021/11/13 03:40:50;;;;;;;24.83;22.03;;;;;;;4.61;91.22;98704.34;4981018;28;102934;-66
2021/11/13 03:43:19;;;;;;;22.17;20.17;;;;;;;4.96;90.37;98703.47;4979090;28;103348;-66
2021/11/13 03:45:50;;;;;;;48.47;26.23;;;;;;;4.72;91.13;98703.81;4980081;28;103240;-66
2021/11/13 03:48:19;;;;;;;28.27;23.93;;;;;;;4.96;90.04;98702.63;4980316;28;103320;-66
2021/11/13 03:50:48;;;;;;;36.50;24.90;;;;;;;5.05;89.11;98699.56;4975859;28;103953;-66
2021/11/13 03:53:17;;;;;;;34.15;24.45;;;;;;;5.14;89.25;98694.69;4981678;28;102657;-66
2021/11/13 03:55:45;;;;;;;28.10;25.20;;;;;;;5.00;89.94;98699.75;4978762;28;104087;-66
2021/11/13 03:58:13;;;;;;;42.78;27.52;;;;;;;4.95;90.07;98693.91;4980216;28;103278;-66
2021/11/13 04:00:42;;;;;;;29.13;26.00;;;;;;;5.07;89.68;98706.41;4979491;28;103215;-66
2021/11/13 04:03:10;;;;;;;26.40;23.83;;;;;;;5.09;90.02;98706.31;4978409;28;102601;-66
2021/11/13 04:05:38;;;;;;;53.95;27.42;;;;;;;4.89;89.81;98699.47;4980701;28;102819;-66
2021/11/13 04:08:06;;;;;;;52.93;28.80;;;;;;;4.43;93.11;98700.00;4978463;28;103228;-66
2021/11/13 04:10:35;;;;;;;24.88;22.38;;;;;;;4.87;92.61;98698.69;4977930;28;103278;-66
2021/11/13 04:13:06;;;;;;;29.13;26.23;;;;;;;4.94;91.24;98697.44;4979590;28;102797;-66
2021/11/13 04:15:35;;;;;;;40.15;28.75;;;;;;;4.81;91.77;98696.38;4980100;28;102855;-66
2021/11/13 04:18:04;;;;;;;86.63;33.55;;;;;;;4.47;92.31;98698.91;4979782;28;104584;-62
2021/11/13 04:20:32;;;;;;;61.00;31.33;;;;;;;4.37;94.62;98680.22;4978514;28;103271;-66
2021/11/13 04:23:00;;;;;;;47.22;30.88;;;;;;;4.40;95.18;98674.84;4979408;28;102920;-63
2021/11/13 04:25:28;;;;;;;50.13;30.70;;;;;;;4.23;94.90;98671.31;4979942;28;103039;-62
2021/11/13 04:28:00;;;;;;;43.42;32.60;;;;;;;4.05;95.51;98668.66;4979683;28;103344;-63
2021/11/13 04:30:28;;;;;;;28.73;25.83;;;;;;;4.57;94.45;98681.88;4979351;28;103004;-62
2021/11/13 04:32:56;;;;;;;33.75;29.27;;;;;;;4.49;94.12;98673.56;4978183;28;102760;-62
2021/11/13 04:35:35;;;;;;;29.80;26.67;;;;;;;4.29;93.88;98664.03;4977588;28;102771;-62
2021/11/13 04:38:05;;;;;;;29.60;26.67;;;;;;;4.15;94.19;98666.47;4978718;28;102993;-66
2021/11/13 04:40:36;;;;;;;30.02;27.10;;;;;;;3.96;94.84;98653.38;4977233;28;103708;-66
2021/11/13 04:43:06;;;;;;;29.50;26.63;;;;;;;4.13;95.16;98662.22;4979973;28;102767;-66
2021/11/13 04:45:34;;;;;;;30.48;27.45;;;;;;;3.91;95.84;98655.38;4980913;28;102599;-66
2021/11/13 04:48:03;;;;;;;27.13;24.52;;;;;;;4.25;94.27;98664.25;4979150;28;104299;-63
2021/11/13 04:50:36;;;;;;;28.90;26.10;;;;;;;4.25;93.61;98667.72;4977064;28;103234;-62
2021/11/13 04:53:04;;;;;;;27.08;24.42;;;;;;;4.29;93.80;98671.88;4980377;28;102841;-62
2021/11/13 04:55:34;;;;;;;19.58;17.77;;;;;;;4.80;92.64;98668.50;4980344;28;102965;-62
2021/11/13 04:58:03;;;;;;;22.90;20.70;;;;;;;4.85;90.64;98661.28;4979837;28;103957;-62
2021/11/13 05:00:34;;;;;;;24.75;22.42;;;;;;;4.42;92.76;98661.66;4975346;28;103241;-62
2021/11/13 05:03:03;;;;;;;24.83;22.52;;;;;;;4.68;91.15;98669.13;4977878;28;102802;-65
2021/11/13 05:05:31;;;;;;;25.33;23.02;;;;;;;4.50;91.61;98665.63;4976002;28;103477;-66
2021/11/13 05:07:59;;;;;;;23.83;21.63;;;;;;;4.69;90.52;98665.56;4976874;28;104020;-66
2021/11/13 05:10:28;;;;;;;25.87;23.43;;;;;;;4.38;91.96;98665.38;4978393;28;103208;-65
2021/11/13 05:12:56;;;;;;;26.02;23.52;;;;;;;4.30;92.55;98670.09;4984601;28;102579;-65
2021/11/13 05:15:24;;;;;;;27.27;24.60;;;;;;;4.36;92.04;98664.56;4981823;28;102839;-67
2021/11/13 05:17:53;;;;;;;25.08;22.67;;;;;;;4.35;92.09;98665.53;4982180;28;103575;-66
2021/11/13 05:20:22;;;;;;;25.70;23.23;;;;;;;4.15;92.95;98670.84;4984537;28;103305;-62
2021/11/13 05:22:50;;;;;;;24.87;22.57;;;;;;;4.31;93.14;98669.19;4982445;28;103062;-62
2021/11/13 05:25:21;;;;;;;25.20;22.80;;;;;;;4.07;92.10;98677.25;4978629;28;103921;-62
2021/11/13 05:27:50;;;;;;;22.27;20.25;;;;;;;4.38;92.87;98670.59;4981011;28;103634;-62
2021/11/13 05:30:21;;;;;;;21.40;19.50;;;;;;;4.73;91.25;98667.09;4983823;28;103243;-62
2021/11/13 05:32:50;;;;;;;21.65;19.75;;;;;;;4.68;90.48;98667.34;4982477;28;102985;-62
2021/11/13 05:35:21;;;;;;;22.30;20.30;;;;;;;4.57;90.08;98674.88;4982762;28;103141;-62
2021/11/13 05:37:50;;;;;;;20.90;19.10;;;;;;;4.63;90.47;98677.16;4982045;28;103299;-63
2021/11/13 05:40:18;;;;;;;22.27;20.27;;;;;;;4.37;90.44;98671.50;4979756;28;103382;-65
2021/11/13 05:42:54;;;;;;;21.20;19.40;;;;;;;4.45;91.43;98672.00;4980637;28;102659;-63
2021/11/13 05:45:25;;;;;;;20.17;18.48;;;;;;;4.54;91.35;98661.09;4982374;28;102883;-64
2021/11/13 05:47:53;;;;;;;18.67;17.07;;;;;;;4.83;89.70;98651.81;4981991;28;103399;-64
2021/11/13 05:50:23;;;;;;;20.02;18.27;;;;;;;4.71;89.00;98661.13;4978025;28;103404;-64
2021/11/13 05:52:52;;;;;;;22.40;20.40;;;;;;;4.24;91.13;98658.16;4982908;28;102579;-64
2021/11/13 05:55:24;;;;;;;20.98;19.17;;;;;;;4.47;90.51;98649.22;4984134;28;102629;-65
2021/11/13 05:57:52;;;;;;;20.65;18.85;;;;;;;4.37;90.51;98650.59;4981527;28;103244;-66
2021/11/13 06:00:23;;;;;;;22.13;20.23;;;;;;;4.05;92.37;98652.97;4981447;28;103580;-67
2021/11/13 06:02:52;;;;;;;21.00;19.20;;;;;;;4.24;92.26;98658.16;4998569;28;102715;-65
2021/11/13 06:05:21;;;;;;;18.35;16.85;;;;;;;4.46;90.50;98650.97;4986015;28;102605;-65
2021/11/13 06:07:51;;;;;;;20.65;18.85;;;;;;;4.37;90.95;98648.81;4982792;28;103327;-65
2021/11/13 06:10:19;;;;;;;18.97;17.37;;;;;;;4.57;91.11;98650.47;4982811;28;103209;-63
2021/11/13 06:12:50;;;;;;;19.20;17.58;;;;;;;4.62;90.11;98645.84;4980931;28;102617;-63
2021/11/13 06:15:23;;;;;;;20.23;18.45;;;;;;;4.42;90.71;98643.34;4980889;28;103962;-65
2021/11/13 06:17:51;;;;;;;21.25;19.45;;;;;;;4.31;90.54;98637.78;4978895;28;104012;-65
2021/11/13 06:20:19;;;;;;;18.30;16.80;;;;;;;4.55;91.35;98641.81;4980836;28;103236;-64
2021/11/13 06:22:47;;;;;;;20.03;18.23;;;;;;;4.31;90.75;98637.78;4980397;28;102937;-65
2021/11/13 06:25:17;;;;;;;20.27;18.58;;;;;;;4.42;90.98;98638.13;4979649;28;102615;-66
2021/11/13 06:27:45;;;;;;;21.00;19.20;;;;;;;4.12;92.46;98634.38;4980282;28;103986;-66
2021/11/13 06:30:16;;;;;;;20.15;18.35;;;;;;;4.42;91.34;98630.28;4977610;28;103329;-65
2021/11/13 06:32:45;;;;;;;21.10;19.23;;;;;;;4.27;91.79;98641.47;4978903;28;102799;-65
2021/11/13 06:35:15;;;;;;;19.15;17.55;;;;;;;4.35;91.11;98629.72;4977709;28;104081;-65
2021/11/13 06:37:44;;;;;;;18.90;17.30;;;;;;;4.50;90.17;98643.81;4979378;28;103369;-65
2021/11/13 06:40:13;;;;;;;20.52;18.83;;;;;;;4.28;91.06;98641.41;4980730;28;103855;-65
2021/11/13 06:42:48;;;;;;;19.83;18.23;;;;;;;4.15;91.69;98642.06;4982364;28;102742;-62
2021/11/13 06:45:16;;;;;;;20.65;18.88;;;;;;;4.02;92.11;98652.25;4981007;28;104166;-62
2021/11/13 06:47:45;;;;;;;18.10;16.60;;;;;;;4.36;91.59;98641.88;4977902;28;103238;-63
2021/11/13 06:50:15;;;;;;;18.37;16.90;;;;;;;4.35;90.68;98644.59;4979012;28;103167;-62
2021/11/13 06:52:47;;;;;;;19.13;17.52;;;;;;;4.42;89.84;98635.50;4980421;28;102924;-62
2021/11/13 06:55:15;;;;;;;19.13;17.52;;;;;;;4.06;91.80;98643.34;4979977;28;102859;-62
2021/11/13 06:57:44;;;;;;;16.50;15.20;;;;;;;4.49;89.98;98642.16;4978493;28;102947;-62
2021/11/13 07:00:17;;;;;;;18.45;16.85;;;;;;;4.47;90.41;98638.75;4978538;28;103221;-62
2021/11/13 07:02:45;;;;;;;17.42;16.02;;;;;;;4.61;89.40;98642.38;4981277;28;102697;-63
2021/11/13 07:05:18;;;;;;;18.23;16.73;;;;;;;4.32;90.15;98644.72;4979842;28;103085;-63
2021/11/13 07:07:46;;;;;;;17.97;16.47;;;;;;;4.42;90.05;98645.97;4980092;28;103301;-63
2021/11/13 07:10:17;;;;;;;17.67;16.25;;;;;;;4.52;90.70;98631.53;4976191;28;103218;-63
2021/11/13 07:12:45;;;;;;;19.52;17.83;;;;;;;4.34;90.88;98643.75;4981436;28;102599;-63
2021/11/13 07:15:16;;;;;;;18.52;17.02;;;;;;;4.34;90.86;98630.66;4981069;28;102903;-63
2021/11/13 07:17:46;;;;;;;18.80;17.20;;;;;;;4.27;90.60;98636.25;4979102;28;103338;-63
2021/11/13 07:20:15;;;;;;;20.07;18.23;;;;;;;4.14;91.32;98629.91;4981891;28;103855;-63
2021/11/13 07:22:45;;;;;;;17.83;16.33;;;;;;;4.46;91.46;98631.84;4980539;28;102653;-65
2021/11/13 07:25:15;;;;;;;16.80;15.40;;;;;;;4.61;89.85;98633.69;4979650;28;103140;-65
2021/11/13 07:27:45;;;;;;;18.77;17.17;;;;;;;4.56;89.91;98648.75;4978081;28;104122;-65
2021/11/13 07:30:17;;;;;;;18.40;16.88;;;;;;;4.52;89.63;98636.78;4979312;28;103362;-65
2021/11/13 07:32:47;;;;;;;17.85;16.35;;;;;;;4.50;89.68;98635.97;4978643;28;104505;-65
2021/11/13 07:35:16;;;;;;;17.20;15.80;;;;;;;4.73;88.66;98630.47;4980268;28;104209;-65
2021/11/13 07:37:44;;;;;;;16.48;15.05;;;;;;;4.79;88.71;98630.16;4978943;28;103134;-64
2021/11/13 07:40:13;;;;;;;17.53;16.13;;;;;;;4.54;89.73;98634.91;4976827;28;103407;-65
2021/11/13 07:42:41;;;;;;;17.60;15.90;;;;;;;4.80;88.49;98633.63;4980125;28;102665;-65
2021/11/13 07:45:09;;;;;;;17.73;16.23;;;;;;;4.80;87.86;98636.25;4980273;28;103025;-64
2021/11/13 07:47:41;;;;;;;16.73;15.32;;;;;;;5.24;86.64;98633.06;4971529;28;103214;-68
2021/11/13 07:50:12;;;;;;;16.05;14.65;;;;;;;5.44;85.60;98633.78;4967473;28;103221;-67
2021/11/13 07:52:42;;;;;;;16.07;14.67;;;;;;;5.45;84.74;98648.56;4974473;28;102669;-64
2021/11/13 07:55:10;;;;;;;15.80;14.55;;;;;;;5.32;85.63;98650.16;4978036;28;102864;-64
2021/11/13 07:57:39;;;;;;;13.90;12.80;;;;;;;5.70;85.04;98652.44;4979377;28;104718;-64
2021/11/13 08:00:10;;;;;;;16.05;14.75;;;;;;;5.55;84.69;98653.28;4977985;28;103279;-63
2021/11/13 08:02:43;;;;;;;16.73;15.23;;;;;;;5.32;86.00;98644.91;4979386;28;102906;-64
2021/11/13 08:05:12;;;;;;;17.10;15.50;;;;;;;5.33;86.41;98646.63;4978716;28;103789;-63
2021/11/13 08:07:40;;;;;;;16.92;15.57;;;;;;;5.49;85.53;98648.34;4975996;28;103242;-63
2021/11/13 08:10:10;;;;;;;17.08;15.68;;;;;;;5.28;86.46;98634.59;4979250;28;103240;-63
2021/11/13 08:12:40;;;;;;;17.23;15.73;;;;;;;5.20;87.07;98639.38;4980528;28;102567;-63
2021/11/13 08:15:12;;;;;;;15.50;14.20;;;;;;;5.73;85.67;98633.06;4978813;28;103985;-63
2021/11/13 08:17:42;;;;;;;15.00;13.70;;;;;;;6.14;84.44;98636.13;4976334;28;103224;-64
2021/11/13 08:20:12;;;;;;;15.93;14.63;;;;;;;5.96;85.29;98632.72;4969944;28;103480;-65
2021/11/13 08:22:41;;;;;;;15.23;14.02;;;;;;;6.23;84.39;98633.81;4974081;28;103014;-65
2021/11/13 08:25:12;;;;;;;18.00;16.40;;;;;;;5.77;84.76;98634.63;4979333;28;104118;-65
2021/11/13 08:27:44;;;;;;;15.93;14.68;;;;;;;5.97;84.90;98650.16;4976058;28;103434;-65
2021/11/13 08:30:14;;;;;;;14.90;13.77;;;;;;;6.09;84.60;98638.97;4976380;28;103182;-65
2021/11/13 08:32:45;;;;;;;17.90;16.30;;;;;;;5.82;85.49;98645.69;4979005;28;102693;-65
2021/11/13 08:35:14;;;;;;;18.52;16.83;;;;;;;5.59;86.21;98652.16;4972181;28;102885;-64
2021/11/13 08:37:45;;;;;;;16.47;15.07;;;;;;;5.63;86.23;98660.72;4972741;28;103324;-65
2021/11/13 08:40:15;;;;;;;15.07;13.68;;;;;;;6.03;86.08;98649.81;4974496;28;103213;-64
2021/11/13 08:42:44;;;;;;;16.42;15.13;;;;;;;6.01;84.77;98646.41;4975446;28;102704;-65
2021/11/13 08:45:13;;;;;;;14.63;13.50;;;;;;;6.33;84.38;98653.38;4972758;28;104011;-64
2021/11/13 08:47:44;;;;;;;15.95;14.68;;;;;;;6.37;83.06;98654.06;4980579;28;104391;-64
2021/11/13 08:50:18;;;;;;;15.30;14.00;;;;;;;6.37;83.72;98651.44;4983867;28;103196;-64
2021/11/13 08:52:47;;;;;;;14.07;12.98;;;;;;;6.55;83.41;98652.16;4981061;28;102835;-64
2021/11/13 08:55:15;;;;;;;15.80;14.50;;;;;;;6.41;82.41;98660.81;4982961;28;102685;-64
2021/11/13 08:57:44;;;;;;;15.20;13.87;;;;;;;6.49;83.40;98663.00;4984262;28;102997;-64
2021/11/13 09:00:14;;;;;;;14.13;12.93;;;;;;;6.79;82.79;98661.28;4982515;28;103339;-64
2021/11/13 09:02:44;;;;;;;14.70;13.40;;;;;;;6.83;81.88;98663.63;4979968;28;103269;-64
2021/11/13 09:05:12;;;;;;;16.67;15.20;;;;;;;6.25;84.04;98660.81;4981838;28;102931;-64
2021/11/13 09:07:40;;;;;;;18.20;16.50;;;;;;;5.77;85.41;98660.84;4982327;28;103962;-64
2021/11/13 09:10:08;;;;;;;18.03;16.43;;;;;;;5.23;89.13;98672.41;4981802;28;103273;-65
2021/11/13 09:12:38;;;;;;;16.17;14.77;;;;;;;5.64;89.92;98651.94;4982701;28;102642;-65
2021/11/13 09:15:12;;;;;;;15.20;13.88;;;;;;;5.84;88.60;98649.06;4982300;28;102758;-65
2021/11/13 09:17:43;;;;;;;16.08;14.77;;;;;;;6.57;84.79;98634.56;4981564;28;103373;-64
2021/11/13 09:20:12;;;;;;;15.00;13.73;;;;;;;6.93;84.31;98632.44;4977140;28;103185;-64
2021/11/13 09:22:40;;;;;;;15.00;13.70;;;;;;;6.95;81.92;98639.28;4979588;28;102643;-64
2021/11/13 09:25:09;;;;;;;15.73;14.32;;;;;;;6.79;82.74;98633.22;4961445;28;102725;-64
2021/11/13 09:27:39;;;;;;;14.80;13.50;;;;;;;6.68;85.70;98643.47;4973159;28;104474;-62
2021/11/13 09:30:10;;;;;;;12.70;11.60;;;;;;;7.52;82.67;98642.00;4975835;28;103175;-65
2021/11/13 09:32:42;;;;;;;13.88;12.68;;;;;;;7.89;80.92;98635.28;4984907;28;102649;-65
2021/11/13 09:35:12;;;;;;;14.57;13.37;;;;;;;8.08;79.14;98633.22;4980666;28;102779;-62
2021/11/13 09:37:40;;;;;;;14.30;13.20;;;;;;;7.92;79.61;98630.69;4979991;28;103800;-63
2021/11/13 09:40:10;;;;;;;15.27;13.98;;;;;;;8.22;78.63;98634.97;4982929;28;103193;-63
2021/11/13 09:42:38;;;;;;;15.20;13.90;;;;;;;7.81;79.42;98630.53;4984993;28;102660;-61
2021/11/13 09:45:07;;;;;;;14.33;13.03;;;;;;;8.24;78.19;98630.44;4983299;28;103465;-61
2021/11/13 09:47:35;;;;;;;13.23;12.23;;;;;;;8.71;77.15;98620.34;4983182;28;103229;-61
2021/11/13 09:50:05;;;;;;;14.30;13.15;;;;;;;8.86;77.17;98624.59;4981936;28;103161;-61
2021/11/13 09:52:35;;;;;;;12.80;11.80;;;;;;;9.03;76.76;98631.38;4983006;28;102771;-61
2021/11/13 09:55:03;;;;;;;13.20;12.20;;;;;;;9.23;76.01;98625.63;4983215;28;102705;-62
2021/11/13 09:57:31;;;;;;;14.15;12.82;;;;;;;9.00;75.59;98624.53;4979955;28;103315;-62
2021/11/13 09:59:59;;;;;;;13.80;12.50;;;;;;;8.99;76.09;98622.84;4982716;28;103181;-61
2021/11/13 10:02:38;;;;;;;14.05;12.88;;;;;;;8.88;77.72;98616.59;4980537;28;102650;-61
2021/11/13 10:05:07;;;;;;;13.80;12.60;;;;;;;8.72;78.50;98617.63;4981974;28;102707;-61
2021/11/13 10:07:38;;;;;;;13.57;12.48;;;;;;;8.57;78.60;98618.63;4980729;28;103598;-61
2021/11/13 10:10:09;;;;;;;13.23;12.15;;;;;;;8.81;78.44;98610.91;4979944;28;104500;-61
2021/11/13 10:12:41;;;;;;;13.53;12.43;;;;;;;8.93;77.37;98612.69;4979789;28;102648;-61
2021/11/13 10:15:28;;;;;;;13.85;12.75;;;;;;;8.89;77.13;98616.50;4978952;28;103000;-62
2021/11/13 10:18:13;;;;;;;15.23;13.88;;;;;;;8.35;80.24;98613.06;4983485;28;102637;-61
2021/11/13 10:20:45;;;;;;;13.82;12.73;;;;;;;8.74;78.99;98617.50;4978314;28;104068;-61
2021/11/13 10:23:35;;;;;;;15.25;14.00;;;;;;;8.18;78.41;98610.63;4981934;28;102947;-61
2021/11/13 10:26:06;;;;;;;13.47;12.27;;;;;;;8.58;79.38;98614.22;4986178;28;103009;-61
2021/11/13 10:28:42;;;;;;;14.20;13.00;;;;;;;8.91;77.63;98605.84;4981695;28;103251;-62
2021/11/13 10:31:13;;;;;;;13.40;12.30;;;;;;;8.96;77.10;98603.75;4983268;28;103169;-62
2021/11/13 10:33:42;;;;;;;16.05;14.63;;;;;;;8.68;77.83;98605.59;4981773;28;102666;-62
2021/11/13 10:36:11;;;;;;;13.90;12.80;;;;;;;8.64;78.57;98598.84;4980192;28;103816;-62
2021/11/13 10:38:44;;;;;;;14.27;13.07;;;;;;;8.85;78.02;98596.56;4981793;28;103984;-61
2021/11/13 10:41:13;;;;;;;12.45;11.48;;;;;;;9.15;77.50;98593.69;4981414;28;103218;-62
2021/11/13 10:43:43;;;;;;;14.00;12.80;;;;;;;9.07;78.08;98588.91;4975926;28;102994;-62
2021/11/13 10:46:13;;;;;;;13.35;12.25;;;;;;;8.90;77.54;98588.38;4981428;28;104021;-62
2021/11/13 10:48:45;;;;;;;15.63;14.23;;;;;;;8.87;78.84;98599.13;4980482;28;104247;-62
2021/11/13 10:51:15;;;;;;;13.75;12.65;;;;;;;8.47;79.22;98596.47;4978898;28;103060;-61
2021/11/13 10:53:47;;;;;;;14.27;13.07;;;;;;;8.60;78.60;98594.72;4979837;28;102791;-62
2021/11/13 10:56:19;;;;;;;13.88;12.77;;;;;;;8.90;77.50;98593.66;4982814;28;102930;-61
2021/11/13 10:58:57;;;;;;;14.20;12.77;;;;;;;9.05;77.33;98579.41;4981967;28;103698;-62
2021/11/13 11:01:35;;;;;;;14.23;13.02;;;;;;;8.76;78.45;98583.19;4982172;28;103041;-62
2021/11/13 11:04:13;;;;;;;13.60;12.50;;;;;;;8.67;78.48;98580.19;4980575;28;102608;-62
2021/11/13 11:06:48;;;;;;;11.20;10.30;;;;;;;9.19;77.64;98587.22;4981202;28;102862;-62
2021/11/13 11:09:25;;;;;;;13.50;12.30;;;;;;;9.26;77.05;98591.16;4977926;28;103262;-62
2021/11/13 11:11:55;;;;;;;13.35;12.15;;;;;;;8.91;77.99;98590.88;4996330;28;103231;-62
2021/11/13 11:14:25;;;;;;;12.83;11.83;;;;;;;9.25;77.63;98579.75;4981896;28;102944;-62
2021/11/13 11:16:55;;;;;;;12.25;11.15;;;;;;;9.50;76.40;98581.53;4979110;28;102731;-62
2021/11/13 11:19:25;;;;;;;15.57;14.17;;;;;;;8.91;79.71;98575.09;4981882;28;103380;-62
2021/11/13 11:22:03;;;;;;;14.52;13.23;;;;;;;9.36;79.54;98572.88;4982589;28;102984;-62
2021/11/13 11:24:39;;;;;;;16.23;14.53;;;;;;;9.29;78.22;98561.94;4980642;28;102872;-62
2021/11/13 11:27:12;;;;;;;13.03;11.93;;;;;;;9.43;77.70;98564.44;4978948;28;103068;-62
2021/11/13 11:29:47;;;;;;;14.40;13.10;;;;;;;9.53;77.65;98559.38;4983214;28;103235;-62